sensor_id;sensor_type;location;lat;lon;timestamp;pressure;altitude;pressure_sealevel;temperature;humidity
48926;BME280;39838;59.938;30.642;2023-09-18T00:00:49;101156.66;;;8.68;83.72
48926;BME280;39838;59.938;30.642;2023-09-18T00:03:17;101156.59;;;8.66;83.58
48926;BME280;39838;59.938;30.642;2023-09-18T00:05:45;101169.53;;;8.65;83.54
48926;BME280;39838;59.938;30.642;2023-09-18T00:08:15;101163.44;;;8.63;83.51
48926;BME280;39838;59.938;30.642;2023-09-18T00:10:43;101172.94;;;8.62;83.20
48926;BME280;39838;59.938;30.642;2023-09-18T00:13:13;101172.84;;;8.58;83.56
48926;BME280;39838;59.938;30.642;2023-09-18T00:15:40;101173.78;;;8.61;83.50
48926;BME280;39838;59.938;30.642;2023-09-18T00:18:10;101180.63;;;8.59;82.94
48926;BME280;39838;59.938;30.642;2023-09-18T00:20:37;101189.25;;;8.58;83.17
48926;BME280;39838;59.938;30.642;2023-09-18T00:23:05;101185.81;;;8.59;83.69
48926;BME280;39838;59.938;30.642;2023-09-18T00:25:34;101188.38;;;8.58;83.02
48926;BME280;39838;59.938;30.642;2023-09-18T00:28:03;101196.97;;;8.54;83.64
48926;BME280;39838;59.938;30.642;2023-09-18T00:30:31;101188.25;;;8.52;83.26
48926;BME280;39838;59.938;30.642;2023-09-18T00:33:00;101185.63;;;8.48;83.32
48926;BME280;39838;59.938;30.642;2023-09-18T00:35:27;101195.13;;;8.48;83.36
48926;BME280;39838;59.938;30.642;2023-09-18T00:37:55;101195.97;;;8.47;83.08
48926;BME280;39838;59.938;30.642;2023-09-18T00:40:23;101201.97;;;8.46;83.92
48926;BME280;39838;59.938;30.642;2023-09-18T00:42:51;101194.16;;;8.43;82.97
48926;BME280;39838;59.938;30.642;2023-09-18T00:45:22;101192.41;;;8.42;83.74
48926;BME280;39838;59.938;30.642;2023-09-18T00:47:49;101196.66;;;8.40;83.39
48926;BME280;39838;59.938;30.642;2023-09-18T00:50:16;101186.28;;;8.40;83.05
48926;BME280;39838;59.938;30.642;2023-09-18T00:52:46;101185.31;;;8.35;83.78
48926;BME280;39838;59.938;30.642;2023-09-18T00:55:14;101187.97;;;8.36;83.76
48926;BME280;39838;59.938;30.642;2023-09-18T00:57:41;101193.94;;;8.34;83.59
48926;BME280;39838;59.938;30.642;2023-09-18T01:00:12;101199.91;;;8.31;83.66
48926;BME280;39838;59.938;30.642;2023-09-18T01:02:43;101203.31;;;8.29;84.14
48926;BME280;39838;59.938;30.642;2023-09-18T01:05:11;101201.59;;;8.28;84.24
48926;BME280;39838;59.938;30.642;2023-09-18T01:07:39;101201.53;;;8.26;84.64
48926;BME280;39838;59.938;30.642;2023-09-18T01:10:08;101189.28;;;8.19;84.38
48926;BME280;39838;59.938;30.642;2023-09-18T01:12:40;101197.16;;;8.22;83.95
48926;BME280;39838;59.938;30.642;2023-09-18T01:15:19;101155.94;;;7.92;84.20
48926;BME280;39838;59.938;30.642;2023-09-18T01:17:49;101205.66;;;8.16;84.00
48926;BME280;39838;59.938;30.642;2023-09-18T01:20:16;101209.94;;;8.14;84.63
48926;BME280;39838;59.938;30.642;2023-09-18T01:22:45;101208.19;;;8.13;85.15
48926;BME280;39838;59.938;30.642;2023-09-18T01:25:15;101210.78;;;8.13;84.38
48926;BME280;39838;59.938;30.642;2023-09-18T01:27:42;101212.50;;;8.13;84.61
48926;BME280;39838;59.938;30.642;2023-09-18T01:30:11;101207.25;;;8.11;84.84
48926;BME280;39838;59.938;30.642;2023-09-18T01:32:39;101205.41;;;8.06;84.61
48926;BME280;39838;59.938;30.642;2023-09-18T01:35:08;101196.63;;;7.98;84.67
48926;BME280;39838;59.938;30.642;2023-09-18T01:37:37;101220.13;;;8.07;84.90
48926;BME280;39838;59.938;30.642;2023-09-18T01:40:07;101229.66;;;8.09;85.01
48926;BME280;39838;59.938;30.642;2023-09-18T01:42:37;101230.53;;;8.10;84.93
48926;BME280;39838;59.938;30.642;2023-09-18T01:45:06;101232.28;;;8.11;84.96
48926;BME280;39838;59.938;30.642;2023-09-18T01:47:33;101230.56;;;8.11;84.90
48926;BME280;39838;59.938;30.642;2023-09-18T01:50:03;101234.00;;;8.12;85.20
48926;BME280;39838;59.938;30.642;2023-09-18T01:52:32;101238.31;;;8.11;85.31
48926;BME280;39838;59.938;30.642;2023-09-18T01:55:00;101234.88;;;8.12;85.26
48926;BME280;39838;59.938;30.642;2023-09-18T01:57:31;101242.66;;;8.12;85.37
48926;BME280;39838;59.938;30.642;2023-09-18T01:59:58;101247.81;;;8.12;85.05
48926;BME280;39838;59.938;30.642;2023-09-18T02:02:26;101253.78;;;8.08;85.23
48926;BME280;39838;59.938;30.642;2023-09-18T02:04:53;101248.59;;;8.07;85.27
48926;BME280;39838;59.938;30.642;2023-09-18T02:07:21;101248.53;;;8.05;85.65
48926;BME280;39838;59.938;30.642;2023-09-18T02:09:51;101246.78;;;8.04;85.45
48926;BME280;39838;59.938;30.642;2023-09-18T02:12:18;101257.09;;;8.01;85.13
48926;BME280;39838;59.938;30.642;2023-09-18T02:14:47;101254.38;;;7.97;85.67
48926;BME280;39838;59.938;30.642;2023-09-18T02:17:14;101258.69;;;7.96;85.81
48926;BME280;39838;59.938;30.642;2023-09-18T02:19:42;101253.50;;;7.94;85.74
48926;BME280;39838;59.938;30.642;2023-09-18T02:22:10;101266.34;;;7.91;85.93
48926;BME280;39838;59.938;30.642;2023-09-18T02:24:38;101271.50;;;7.90;85.86
48926;BME280;39838;59.938;30.642;2023-09-18T02:27:05;101265.47;;;7.91;86.08
48926;BME280;39838;59.938;30.642;2023-09-18T02:29:33;101260.25;;;7.88;86.40
48926;BME280;39838;59.938;30.642;2023-09-18T02:32:01;101273.94;;;7.84;86.07
48926;BME280;39838;59.938;30.642;2023-09-18T02:34:29;101277.38;;;7.84;86.42
48926;BME280;39838;59.938;30.642;2023-09-18T02:36:56;101273.91;;;7.82;86.63
48926;BME280;39838;59.938;30.642;2023-09-18T02:39:24;101276.44;;;7.79;86.83
48926;BME280;39838;59.938;30.642;2023-09-18T02:41:51;101272.91;;;7.77;87.35
48926;BME280;39838;59.938;30.642;2023-09-18T02:44:18;101267.69;;;7.74;87.58
48926;BME280;39838;59.938;30.642;2023-09-18T02:46:46;101268.56;;;7.75;87.26
48926;BME280;39838;59.938;30.642;2023-09-18T02:49:14;101272.84;;;7.74;86.95
48926;BME280;39838;59.938;30.642;2023-09-18T02:51:42;101271.09;;;7.73;87.11
48926;BME280;39838;59.938;30.642;2023-09-18T02:54:10;101277.16;;;7.74;87.75
48926;BME280;39838;59.938;30.642;2023-09-18T02:56:37;101266.84;;;7.75;87.64
48926;BME280;39838;59.938;30.642;2023-09-18T02:59:05;101265.13;;;7.76;87.06
48926;BME280;39838;59.938;30.642;2023-09-18T03:01:32;101270.31;;;7.77;87.47
48926;BME280;39838;59.938;30.642;2023-09-18T03:03:59;101272.03;;;7.77;87.25
48926;BME280;39838;59.938;30.642;2023-09-18T03:06:28;101278.06;;;7.76;87.35
48926;BME280;39838;59.938;30.642;2023-09-18T03:08:55;101279.69;;;7.72;87.86
48926;BME280;39838;59.938;30.642;2023-09-18T03:11:23;101286.56;;;7.72;87.91
48926;BME280;39838;59.938;30.642;2023-09-18T03:13:53;101287.41;;;7.71;87.59
48926;BME280;39838;59.938;30.642;2023-09-18T03:16:21;101285.66;;;7.70;87.69
48926;BME280;39838;59.938;30.642;2023-09-18T03:18:48;101291.66;;;7.67;88.27
48926;BME280;39838;59.938;30.642;2023-09-18T03:21:15;101289.94;;;7.68;88.17
48926;BME280;39838;59.938;30.642;2023-09-18T03:23:44;101294.22;;;7.65;88.31
48926;BME280;39838;59.938;30.642;2023-09-18T03:26:11;101292.41;;;7.63;88.37
48926;BME280;39838;59.938;30.642;2023-09-18T03:28:38;101292.41;;;7.63;88.38
48926;BME280;39838;59.938;30.642;2023-09-18T03:31:06;101298.47;;;7.65;88.40
48926;BME280;39838;59.938;30.642;2023-09-18T03:33:34;101304.56;;;7.65;88.54
48926;BME280;39838;59.938;30.642;2023-09-18T03:36:01;101296.81;;;7.67;88.26
48926;BME280;39838;59.938;30.642;2023-09-18T03:38:30;101291.69;;;7.69;88.53
48926;BME280;39838;59.938;30.642;2023-09-18T03:41:01;101291.69;;;7.69;88.62
48926;BME280;39838;59.938;30.642;2023-09-18T03:43:28;101282.19;;;7.68;88.29
48926;BME280;39838;59.938;30.642;2023-09-18T03:46:03;101281.31;;;7.67;88.87
48926;BME280;39838;59.938;30.642;2023-09-18T03:48:30;101280.38;;;7.65;88.65
48926;BME280;39838;59.938;30.642;2023-09-18T03:51:03;101289.06;;;7.67;88.54
48926;BME280;39838;59.938;30.642;2023-09-18T03:53:32;101292.50;;;7.66;88.58
48926;BME280;39838;59.938;30.642;2023-09-18T03:56:00;101282.97;;;7.65;89.09
48926;BME280;39838;59.938;30.642;2023-09-18T03:58:28;101281.28;;;7.65;88.58
48926;BME280;39838;59.938;30.642;2023-09-18T04:00:55;101285.59;;;7.66;88.73
48926;BME280;39838;59.938;30.642;2023-09-18T04:03:23;101277.88;;;7.68;89.13
48926;BME280;39838;59.938;30.642;2023-09-18T04:05:50;101289.97;;;7.69;89.12
48926;BME280;39838;59.938;30.642;2023-09-18T04:08:17;101296.03;;;7.71;89.28
48926;BME280;39838;59.938;30.642;2023-09-18T04:10:45;101298.63;;;7.71;89.44
48926;BME280;39838;59.938;30.642;2023-09-18T04:13:13;101294.31;;;7.72;89.67
48926;BME280;39838;59.938;30.642;2023-09-18T04:15:41;101297.84;;;7.74;89.24
48926;BME280;39838;59.938;30.642;2023-09-18T04:18:08;101294.41;;;7.75;89.76
48926;BME280;39838;59.938;30.642;2023-09-18T04:20:35;101304.81;;;7.78;89.57
48926;BME280;39838;59.938;30.642;2023-09-18T04:23:20;101303.13;;;7.78;89.56
48926;BME280;39838;59.938;30.642;2023-09-18T04:25:48;101308.34;;;7.80;89.45
48926;BME280;39838;59.938;30.642;2023-09-18T04:28:18;101310.16;;;7.84;89.53
48926;BME280;39838;59.938;30.642;2023-09-18T04:30:46;101298.81;;;7.79;89.49
48926;BME280;39838;59.938;30.642;2023-09-18T04:33:14;101311.13;;;7.89;89.55
48926;BME280;39838;59.938;30.642;2023-09-18T04:35:42;101307.81;;;7.94;89.31
48926;BME280;39838;59.938;30.642;2023-09-18T04:38:09;101307.13;;;8.02;89.44
48926;BME280;39838;59.938;30.642;2023-09-18T04:40:37;101305.47;;;8.05;89.58
48926;BME280;39838;59.938;30.642;2023-09-18T04:43:05;101310.91;;;8.16;89.27
48926;BME280;39838;59.938;30.642;2023-09-18T04:45:34;101301.56;;;8.23;89.09
48926;BME280;39838;59.938;30.642;2023-09-18T04:48:01;101302.47;;;8.25;88.67
48926;BME280;39838;59.938;30.642;2023-09-18T04:50:28;101299.25;;;8.35;88.53
48926;BME280;39838;59.938;30.642;2023-09-18T04:52:56;101303.66;;;8.39;88.66
48926;BME280;39838;59.938;30.642;2023-09-18T04:55:23;101314.09;;;8.40;88.38
48926;BME280;39838;59.938;30.642;2023-09-18T04:57:50;101310.69;;;8.43;87.81
48926;BME280;39838;59.938;30.642;2023-09-18T05:00:18;101308.13;;;8.46;87.73
48926;BME280;39838;59.938;30.642;2023-09-18T05:02:53;101309.13;;;8.51;87.48
48926;BME280;39838;59.938;30.642;2023-09-18T05:05:20;101311.72;;;8.51;87.45
48926;BME280;39838;59.938;30.642;2023-09-18T05:07:48;101322.28;;;8.60;88.10
48926;BME280;39838;59.938;30.642;2023-09-18T05:10:15;101325.81;;;8.65;87.44
48926;BME280;39838;59.938;30.642;2023-09-18T05:12:44;101317.31;;;8.72;87.93
48926;BME280;39838;59.938;30.642;2023-09-18T05:15:11;101309.63;;;8.74;87.10
48926;BME280;39838;59.938;30.642;2023-09-18T05:17:41;101307.97;;;8.79;86.96
48926;BME280;39838;59.938;30.642;2023-09-18T05:20:15;101300.94;;;8.73;86.81
48926;BME280;39838;59.938;30.642;2023-09-18T05:22:45;101315.97;;;8.90;87.18
48926;BME280;39838;59.938;30.642;2023-09-18T05:25:13;101311.69;;;8.92;86.95
48926;BME280;39838;59.938;30.642;2023-09-18T05:27:42;101329.06;;;8.97;86.61
48926;BME280;39838;59.938;30.642;2023-09-18T05:30:12;101330.84;;;9.00;87.19
48926;BME280;39838;59.938;30.642;2023-09-18T05:32:41;101333.56;;;9.06;87.33
48926;BME280;39838;59.938;30.642;2023-09-18T05:35:09;101334.50;;;9.11;86.44
48926;BME280;39838;59.938;30.642;2023-09-18T05:37:40;101328.59;;;9.17;86.38
48926;BME280;39838;59.938;30.642;2023-09-18T05:40:09;101330.41;;;9.22;85.93
48926;BME280;39838;59.938;30.642;2023-09-18T05:42:37;101327.94;;;9.28;86.79
48926;BME280;39838;59.938;30.642;2023-09-18T05:45:05;101339.25;;;9.34;85.60
48926;BME280;39838;59.938;30.642;2023-09-18T05:47:33;101331.56;;;9.38;86.27
48926;BME280;39838;59.938;30.642;2023-09-18T05:50:01;101334.25;;;9.43;86.37
48926;BME280;39838;59.938;30.642;2023-09-18T05:52:31;101333.53;;;9.51;85.49
48926;BME280;39838;59.938;30.642;2023-09-18T05:55:00;101342.28;;;9.56;85.41
48926;BME280;39838;59.938;30.642;2023-09-18T05:57:29;101341.56;;;9.65;85.41
48926;BME280;39838;59.938;30.642;2023-09-18T05:59:57;101345.09;;;9.70;84.88
48926;BME280;39838;59.938;30.642;2023-09-18T06:02:24;101332.91;;;9.66;84.53
48926;BME280;39838;59.938;30.642;2023-09-18T06:04:54;101348.63;;;9.75;84.55
48926;BME280;39838;59.938;30.642;2023-09-18T06:07:24;101349.53;;;9.76;84.38
48926;BME280;39838;59.938;30.642;2023-09-18T06:09:51;101355.66;;;9.81;84.05
48926;BME280;39838;59.938;30.642;2023-09-18T06:12:20;101360.88;;;9.82;84.65
48926;BME280;39838;59.938;30.642;2023-09-18T06:14:48;101355.75;;;9.89;84.63
48926;BME280;39838;59.938;30.642;2023-09-18T06:17:15;101364.53;;;9.95;84.29
48926;BME280;39838;59.938;30.642;2023-09-18T06:19:44;101359.41;;;9.98;83.89
48926;BME280;39838;59.938;30.642;2023-09-18T06:22:12;101356.81;;;10.00;83.95
48926;BME280;39838;59.938;30.642;2023-09-18T06:24:40;101369.03;;;10.04;83.67
48926;BME280;39838;59.938;30.642;2023-09-18T06:27:07;101367.34;;;10.09;83.85
48926;BME280;39838;59.938;30.642;2023-09-18T06:29:36;101359.66;;;10.15;83.92
48926;BME280;39838;59.938;30.642;2023-09-18T06:32:05;101364.19;;;10.27;83.76
48926;BME280;39838;59.938;30.642;2023-09-18T06:34:33;101367.78;;;10.35;83.29
48926;BME280;39838;59.938;30.642;2023-09-18T06:37:00;101376.59;;;10.43;83.21
48926;BME280;39838;59.938;30.642;2023-09-18T06:39:29;101374.97;;;10.53;82.37
48926;BME280;39838;59.938;30.642;2023-09-18T06:41:56;101383.72;;;10.59;82.25
48926;BME280;39838;59.938;30.642;2023-09-18T06:44:24;101382.00;;;10.61;82.01
48926;BME280;39838;59.938;30.642;2023-09-18T06:46:52;101390.75;;;10.66;81.41
48926;BME280;39838;59.938;30.642;2023-09-18T06:49:20;101383.94;;;10.76;81.46
48926;BME280;39838;59.938;30.642;2023-09-18T06:51:47;101381.47;;;10.85;81.08
48926;BME280;39838;59.938;30.642;2023-09-18T06:54:15;101385.03;;;10.93;80.72
48926;BME280;39838;59.938;30.642;2023-09-18T06:56:42;101377.34;;;11.01;79.76
48926;BME280;39838;59.938;30.642;2023-09-18T06:59:10;101371.34;;;11.07;79.63
48926;BME280;39838;59.938;30.642;2023-09-18T07:01:39;101380.94;;;11.12;79.41
48926;BME280;39838;59.938;30.642;2023-09-18T07:04:08;101376.69;;;11.19;79.28
48926;BME280;39838;59.938;30.642;2023-09-18T07:06:35;101370.69;;;11.26;78.97
48926;BME280;39838;59.938;30.642;2023-09-18T07:09:03;101382.03;;;11.33;78.37
48926;BME280;39838;59.938;30.642;2023-09-18T07:11:32;101380.34;;;11.36;77.38
48926;BME280;39838;59.938;30.642;2023-09-18T07:14:00;101383.00;;;11.41;77.43
48926;BME280;39838;59.938;30.642;2023-09-18T07:16:28;101387.41;;;11.49;77.29
48926;BME280;39838;59.938;30.642;2023-09-18T07:18:55;101384.91;;;11.59;77.14
48926;BME280;39838;59.938;30.642;2023-09-18T07:21:25;101390.19;;;11.66;76.80
48926;BME280;39838;59.938;30.642;2023-09-18T07:23:52;101382.41;;;11.71;75.84
48926;BME280;39838;59.938;30.642;2023-09-18T07:26:19;101384.19;;;11.72;75.60
48926;BME280;39838;59.938;30.642;2023-09-18T07:28:47;101385.97;;;11.79;75.50
48926;BME280;39838;59.938;30.642;2023-09-18T07:31:14;101391.25;;;11.85;74.63
48926;BME280;39838;59.938;30.642;2023-09-18T07:33:41;101392.16;;;11.90;73.88
48926;BME280;39838;59.938;30.642;2023-09-18T07:36:09;101390.53;;;12.01;73.44
48926;BME280;39838;59.938;30.642;2023-09-18T07:38:38;101385.38;;;12.09;72.96
48926;BME280;39838;59.938;30.642;2023-09-18T07:41:09;101394.06;;;12.10;72.63
48926;BME280;39838;59.938;30.642;2023-09-18T07:43:36;101393.25;;;12.17;72.87
48926;BME280;39838;59.938;30.642;2023-09-18T07:46:04;101401.13;;;12.26;72.38
48926;BME280;39838;59.938;30.642;2023-09-18T07:48:32;101397.69;;;12.32;71.44
48926;BME280;39838;59.938;30.642;2023-09-18T07:51:00;101400.34;;;12.35;70.18
48926;BME280;39838;59.938;30.642;2023-09-18T07:53:26;101397.78;;;12.44;70.06
48926;BME280;39838;59.938;30.642;2023-09-18T07:55:57;101401.31;;;12.52;69.56
48926;BME280;39838;59.938;30.642;2023-09-18T07:58:25;101403.97;;;12.58;69.16
48926;BME280;39838;59.938;30.642;2023-09-18T08:00:53;101394.44;;;12.66;69.02
48926;BME280;39838;59.938;30.642;2023-09-18T08:03:21;101390.19;;;12.80;68.87
48926;BME280;39838;59.938;30.642;2023-09-18T08:05:50;101398.06;;;12.91;67.68
48926;BME280;39838;59.938;30.642;2023-09-18T08:08:20;101398.13;;;13.02;67.19
48926;BME280;39838;59.938;30.642;2023-09-18T08:10:49;101393.78;;;13.08;66.44
48926;BME280;39838;59.938;30.642;2023-09-18T08:13:18;101395.53;;;13.12;66.07
48926;BME280;39838;59.938;30.642;2023-09-18T08:15:46;101398.25;;;13.28;65.40
48926;BME280;39838;59.938;30.642;2023-09-18T08:18:16;101390.47;;;13.49;64.58
48926;BME280;39838;59.938;30.642;2023-09-18T08:20:44;101382.66;;;13.68;64.02
48926;BME280;39838;59.938;30.642;2023-09-18T08:23:11;101394.84;;;13.87;63.67
48926;BME280;39838;59.938;30.642;2023-09-18T08:25:39;101390.50;;;13.93;62.71
48926;BME280;39838;59.938;30.642;2023-09-18T08:28:07;101394.00;;;14.06;62.50
48926;BME280;39838;59.938;30.642;2023-09-18T08:30:36;101376.56;;;14.14;61.72
48926;BME280;39838;59.938;30.642;2023-09-18T08:33:06;101388.75;;;14.49;61.16
48926;BME280;39838;59.938;30.642;2023-09-18T08:35:33;101389.59;;;14.66;60.63
48926;BME280;39838;59.938;30.642;2023-09-18T08:38:00;101398.25;;;14.82;59.47
48926;BME280;39838;59.938;30.642;2023-09-18T08:40:28;101387.75;;;14.90;59.13
48926;BME280;39838;59.938;30.642;2023-09-18T08:42:55;101388.66;;;14.87;58.85
48926;BME280;39838;59.938;30.642;2023-09-18T08:45:33;101394.75;;;14.86;58.29
48926;BME280;39838;59.938;30.642;2023-09-18T08:48:04;101394.75;;;14.82;58.17
48926;BME280;39838;59.938;30.642;2023-09-18T08:50:33;101398.25;;;14.84;57.41
48926;BME280;39838;59.938;30.642;2023-09-18T08:53:00;101399.97;;;14.92;57.36
48926;BME280;39838;59.938;30.642;2023-09-18T08:55:28;101392.09;;;14.97;57.20
48926;BME280;39838;59.938;30.642;2023-09-18T08:57:58;101401.66;;;15.06;57.04
48926;BME280;39838;59.938;30.642;2023-09-18T09:00:26;101397.28;;;15.09;56.69
48926;BME280;39838;59.938;30.642;2023-09-18T09:02:57;101392.91;;;15.13;56.53
48926;BME280;39838;59.938;30.642;2023-09-18T09:05:26;101410.31;;;15.21;56.19
48926;BME280;39838;59.938;30.642;2023-09-18T09:07:53;101408.53;;;15.26;55.68
48926;BME280;39838;59.938;30.642;2023-09-18T09:10:22;101405.94;;;15.26;54.76
48926;BME280;39838;59.938;30.642;2023-09-18T09:12:53;101403.28;;;15.28;54.73
48926;BME280;39838;59.938;30.642;2023-09-18T09:15:21;101400.69;;;15.26;55.56
48926;BME280;39838;59.938;30.642;2023-09-18T09:17:51;101392.91;;;15.17;55.31
48926;BME280;39838;59.938;30.642;2023-09-18T09:20:19;101405.06;;;15.26;54.91
48926;BME280;39838;59.938;30.642;2023-09-18T09:22:47;101398.00;;;15.36;55.13
48926;BME280;39838;59.938;30.642;2023-09-18T09:25:23;101401.47;;;15.47;55.19
48926;BME280;39838;59.938;30.642;2023-09-18T09:27:52;101404.84;;;15.64;55.01
48926;BME280;39838;59.938;30.642;2023-09-18T09:30:21;101372.63;;;15.51;55.12
48926;BME280;39838;59.938;30.642;2023-09-18T09:32:50;101410.00;;;15.81;54.98
48926;BME280;39838;59.938;30.642;2023-09-18T09:35:22;101414.28;;;15.90;54.56
48926;BME280;39838;59.938;30.642;2023-09-18T09:37:51;101407.38;;;15.81;54.00
48926;BME280;39838;59.938;30.642;2023-09-18T09:40:20;101407.44;;;15.73;53.53
48926;BME280;39838;59.938;30.642;2023-09-18T09:42:47;101415.28;;;15.70;53.84
48926;BME280;39838;59.938;30.642;2023-09-18T09:45:15;101419.59;;;15.77;53.51
48926;BME280;39838;59.938;30.642;2023-09-18T09:47:43;101412.69;;;15.72;52.79
48926;BME280;39838;59.938;30.642;2023-09-18T09:50:13;101406.59;;;15.61;52.78
48926;BME280;39838;59.938;30.642;2023-09-18T09:52:42;101399.63;;;15.56;53.49
48926;BME280;39838;59.938;30.642;2023-09-18T09:55:22;101422.31;;;15.64;53.44
48926;BME280;39838;59.938;30.642;2023-09-18T09:57:52;101394.44;;;15.52;53.20
48926;BME280;39838;59.938;30.642;2023-09-18T10:00:20;101408.31;;;15.69;53.28
48926;BME280;39838;59.938;30.642;2023-09-18T10:02:56;101406.56;;;15.71;53.05
48926;BME280;39838;59.938;30.642;2023-09-18T10:05:27;101410.13;;;15.55;52.94
48926;BME280;39838;59.938;30.642;2023-09-18T10:07:58;101398.81;;;15.53;53.25
48926;BME280;39838;59.938;30.642;2023-09-18T10:10:31;101402.28;;;15.50;53.14
48926;BME280;39838;59.938;30.642;2023-09-18T10:13:07;101410.19;;;15.43;53.21
48926;BME280;39838;59.938;30.642;2023-09-18T10:15:37;101403.28;;;15.29;53.15
48926;BME280;39838;59.938;30.642;2023-09-18T10:18:22;101408.53;;;15.33;54.10
48926;BME280;39838;59.938;30.642;2023-09-18T10:20:57;101406.72;;;15.41;54.25
48926;BME280;39838;59.938;30.642;2023-09-18T10:23:38;101406.69;;;15.51;54.33
48926;BME280;39838;59.938;30.642;2023-09-18T10:26:14;101401.38;;;15.62;53.73
48926;BME280;39838;59.938;30.642;2023-09-18T10:28:47;101410.06;;;15.72;53.98
48926;BME280;39838;59.938;30.642;2023-09-18T10:31:19;101412.59;;;15.86;53.10
48926;BME280;39838;59.938;30.642;2023-09-18T10:33:48;101407.34;;;15.84;53.07
48926;BME280;39838;59.938;30.642;2023-09-18T10:36:16;101419.50;;;15.94;53.14
48926;BME280;39838;59.938;30.642;2023-09-18T10:38:48;101421.16;;;16.06;52.70
48926;BME280;39838;59.938;30.642;2023-09-18T10:41:20;101415.84;;;16.12;52.44
48926;BME280;39838;59.938;30.642;2023-09-18T10:43:51;101414.94;;;16.19;52.75
48926;BME280;39838;59.938;30.642;2023-09-18T10:46:22;101414.03;;;16.22;52.48
48926;BME280;39838;59.938;30.642;2023-09-18T10:48:50;101407.84;;;16.29;52.00
48926;BME280;39838;59.938;30.642;2023-09-18T10:51:20;101412.16;;;16.36;51.95
48926;BME280;39838;59.938;30.642;2023-09-18T10:53:48;101409.47;;;16.42;51.51
48926;BME280;39838;59.938;30.642;2023-09-18T10:56:15;101407.69;;;16.47;51.48
48926;BME280;39838;59.938;30.642;2023-09-18T10:58:45;101383.44;;;16.22;51.38
48926;BME280;39838;59.938;30.642;2023-09-18T11:01:12;101423.50;;;16.38;51.71
48926;BME280;39838;59.938;30.642;2023-09-18T11:03:40;101413.00;;;16.38;51.80
48926;BME280;39838;59.938;30.642;2023-09-18T11:06:11;101410.31;;;16.44;51.56
48926;BME280;39838;59.938;30.642;2023-09-18T11:08:44;101425.84;;;16.65;51.50
48926;BME280;39838;59.938;30.642;2023-09-18T11:11:12;101424.06;;;16.72;51.54
48926;BME280;39838;59.938;30.642;2023-09-18T11:13:41;101427.47;;;16.79;51.53
48926;BME280;39838;59.938;30.642;2023-09-18T11:16:34;101420.59;;;16.70;51.63
48926;BME280;39838;59.938;30.642;2023-09-18T11:19:16;101419.72;;;16.70;51.25
48926;BME280;39838;59.938;30.642;2023-09-18T11:21:45;101416.25;;;16.63;51.32
48926;BME280;39838;59.938;30.642;2023-09-18T11:24:17;101420.63;;;16.64;51.65
48926;BME280;39838;59.938;30.642;2023-09-18T11:26:46;101422.34;;;16.67;51.93
48926;BME280;39838;59.938;30.642;2023-09-18T11:29:15;101380.66;;;16.37;51.73
48926;BME280;39838;59.938;30.642;2023-09-18T11:31:47;101423.44;;;16.44;51.62
48926;BME280;39838;59.938;30.642;2023-09-18T11:34:19;101408.78;;;16.23;52.04
48926;BME280;39838;59.938;30.642;2023-09-18T11:36:46;101432.34;;;16.25;52.42
48926;BME280;39838;59.938;30.642;2023-09-18T11:39:33;101426.28;;;16.20;52.97
48926;BME280;39838;59.938;30.642;2023-09-18T11:42:11;101429.75;;;16.23;53.02
48926;BME280;39838;59.938;30.642;2023-09-18T11:44:40;101428.88;;;16.26;53.20
48926;BME280;39838;59.938;30.642;2023-09-18T11:47:15;101431.47;;;16.24;53.18
48926;BME280;39838;59.938;30.642;2023-09-18T11:49:46;101429.75;;;16.23;53.35
48926;BME280;39838;59.938;30.642;2023-09-18T11:52:16;101422.81;;;16.19;53.32
48926;BME280;39838;59.938;30.642;2023-09-18T11:54:44;101424.56;;;16.17;53.61
48926;BME280;39838;59.938;30.642;2023-09-18T11:57:14;101420.25;;;16.13;53.55
48926;BME280;39838;59.938;30.642;2023-09-18T11:59:42;101415.88;;;16.09;53.54
48926;BME280;39838;59.938;30.642;2023-09-18T12:02:13;101415.03;;;16.08;53.71
48926;BME280;39838;59.938;30.642;2023-09-18T12:04:47;101404.59;;;16.01;54.04
48926;BME280;39838;59.938;30.642;2023-09-18T12:07:14;101415.84;;;16.15;53.95
48926;BME280;39838;59.938;30.642;2023-09-18T12:09:42;101407.13;;;16.10;53.77
48926;BME280;39838;59.938;30.642;2023-09-18T12:12:10;101411.50;;;16.13;54.09
48926;BME280;39838;59.938;30.642;2023-09-18T12:14:40;101411.41;;;16.19;54.05
48926;BME280;39838;59.938;30.642;2023-09-18T12:17:08;101414.03;;;16.22;54.01
48926;BME280;39838;59.938;30.642;2023-09-18T12:19:37;101403.53;;;16.23;54.16
48926;BME280;39838;59.938;30.642;2023-09-18T12:22:04;101400.00;;;16.27;53.85
48926;BME280;39838;59.938;30.642;2023-09-18T12:24:31;101397.34;;;16.30;53.58
48926;BME280;39838;59.938;30.642;2023-09-18T12:26:59;101399.22;;;16.19;53.76
48926;BME280;39838;59.938;30.642;2023-09-18T12:29:26;101401.81;;;16.18;54.10
48926;BME280;39838;59.938;30.642;2023-09-18T12:31:54;101402.66;;;16.23;54.01
48926;BME280;39838;59.938;30.642;2023-09-18T12:34:21;101399.13;;;16.27;53.61
48926;BME280;39838;59.938;30.642;2023-09-18T12:36:51;101394.72;;;16.30;53.23
48926;BME280;39838;59.938;30.642;2023-09-18T12:39:18;101395.59;;;16.29;53.54
48926;BME280;39838;59.938;30.642;2023-09-18T12:41:48;101388.72;;;16.18;53.27
48926;BME280;39838;59.938;30.642;2023-09-18T12:44:16;101398.38;;;16.14;53.67
48926;BME280;39838;59.938;30.642;2023-09-18T12:46:43;101393.13;;;16.16;53.45
48926;BME280;39838;59.938;30.642;2023-09-18T12:49:20;101391.31;;;16.21;53.25
48926;BME280;39838;59.938;30.642;2023-09-18T12:51:56;101397.38;;;16.27;53.08
48926;BME280;39838;59.938;30.642;2023-09-18T12:54:37;101387.72;;;16.32;52.83